sensor_id;sensor_type;location;lat;lon;timestamp;pressure;altitude;pressure_sealevel;temperature;humidity
34925;BME280;21130;51.728;8.748;2023-03-03T00:00:41;101168.34;;;-2.06;100.00
34925;BME280;21130;51.728;8.748;2023-03-03T00:03:11;101168.63;;;-1.99;100.00
34925;BME280;21130;51.728;8.748;2023-03-03T00:05:40;101167.16;;;-1.93;100.00
34925;BME280;21130;51.728;8.748;2023-03-03T00:08:07;101163.16;;;-1.89;100.00
34925;BME280;21130;51.728;8.748;2023-03-03T00:16:47;101162.78;;;-1.67;100.00
34925;BME280;21130;51.728;8.748;2023-03-03T00:19:17;101162.59;;;-1.56;100.00
34925;BME280;21130;51.728;8.748;2023-03-03T00:21:46;101163.88;;;-1.50;100.00
34925;BME280;21130;51.728;8.748;2023-03-03T00:24:21;101160.41;;;-1.42;100.00
34925;BME280;21130;51.728;8.748;2023-03-03T00:26:49;101158.66;;;-1.43;100.00
34925;BME280;21130;51.728;8.748;2023-03-03T00:29:25;101156.66;;;-1.41;100.00
34925;BME280;21130;51.728;8.748;2023-03-03T00:31:52;101146.34;;;-1.38;100.00
34925;BME280;21130;51.728;8.748;2023-03-03T00:34:24;101151.69;;;-1.28;100.00
34925;BME280;21130;51.728;8.748;2023-03-03T00:36:53;101150.31;;;-1.32;100.00
34925;BME280;21130;51.728;8.748;2023-03-03T00:39:25;101147.22;;;-1.19;100.00
34925;BME280;21130;51.728;8.748;2023-03-03T00:41:54;101149.41;;;-1.23;100.00
34925;BME280;21130;51.728;8.748;2023-03-03T00:44:41;101160.97;;;-1.21;100.00
34925;BME280;21130;51.728;8.748;2023-03-03T00:47:30;101164.28;;;-1.17;100.00
34925;BME280;21130;51.728;8.748;2023-03-03T00:50:25;101168.09;;;-1.10;100.00
34925;BME280;21130;51.728;8.748;2023-03-03T00:52:59;101164.09;;;-1.16;100.00
34925;BME280;21130;51.728;8.748;2023-03-03T00:55:26;101162.09;;;-1.14;100.00
34925;BME280;21130;51.728;8.748;2023-03-03T00:57:54;101169.03;;;-1.01;100.00
34925;BME280;21130;51.728;8.748;2023-03-03T01:00:20;101155.56;;;-1.03;100.00
34925;BME280;21130;51.728;8.748;2023-03-03T01:02:47;101163.91;;;-1.04;100.00
34925;BME280;21130;51.728;8.748;2023-03-03T01:05:15;101165.00;;;-0.97;100.00
34925;BME280;21130;51.728;8.748;2023-03-03T01:07:43;101161.66;;;-0.91;100.00
34925;BME280;21130;51.728;8.748;2023-03-03T01:10:10;101156.06;;;-0.90;100.00
34925;BME280;21130;51.728;8.748;2023-03-03T01:12:36;101162.69;;;-0.92;100.00
34925;BME280;21130;51.728;8.748;2023-03-03T01:15:05;101155.22;;;-0.90;100.00
34925;BME280;21130;51.728;8.748;2023-03-03T01:17:32;101152.09;;;-0.95;100.00
34925;BME280;21130;51.728;8.748;2023-03-03T01:19:58;101154.81;;;-0.95;100.00
34925;BME280;21130;51.728;8.748;2023-03-03T01:22:25;101149.06;;;-0.92;100.00
34925;BME280;21130;51.728;8.748;2023-03-03T01:24:52;101138.31;;;-0.94;100.00
34925;BME280;21130;51.728;8.748;2023-03-03T01:27:19;101131.28;;;-0.96;100.00
34925;BME280;21130;51.728;8.748;2023-03-03T01:29:45;101135.44;;;-0.92;100.00
34925;BME280;21130;51.728;8.748;2023-03-03T01:32:11;101138.88;;;-0.90;100.00
34925;BME280;21130;51.728;8.748;2023-03-03T01:34:38;101129.66;;;-0.89;100.00
34925;BME280;21130;51.728;8.748;2023-03-03T01:37:04;101132.00;;;-0.94;100.00
34925;BME280;21130;51.728;8.748;2023-03-03T01:39:31;101132.00;;;-0.94;100.00
34925;BME280;21130;51.728;8.748;2023-03-03T01:41:58;101137.84;;;-0.89;100.00
34925;BME280;21130;51.728;8.748;2023-03-03T01:44:25;101138.38;;;-0.85;100.00
34925;BME280;21130;51.728;8.748;2023-03-03T01:46:54;101146.56;;;-0.85;100.00
34925;BME280;21130;51.728;8.748;2023-03-03T01:49:25;101151.41;;;-0.79;100.00
34925;BME280;21130;51.728;8.748;2023-03-03T01:51:54;101164.63;;;-0.84;100.00
34925;BME280;21130;51.728;8.748;2023-03-03T01:54:26;101155.75;;;-0.87;100.00
34925;BME280;21130;51.728;8.748;2023-03-03T01:56:56;101160.09;;;-0.76;100.00
34925;BME280;21130;51.728;8.748;2023-03-03T01:59:27;101160.97;;;-0.75;100.00
34925;BME280;21130;51.728;8.748;2023-03-03T02:01:54;101156.00;;;-0.80;100.00
34925;BME280;21130;51.728;8.748;2023-03-03T02:04:21;101152.56;;;-0.82;100.00
34925;BME280;21130;51.728;8.748;2023-03-03T02:06:51;101152.56;;;-0.82;100.00
34925;BME280;21130;51.728;8.748;2023-03-03T02:09:26;101151.16;;;-0.86;100.00
34925;BME280;21130;51.728;8.748;2023-03-03T02:11:57;101148.44;;;-0.86;100.00
34925;BME280;21130;51.728;8.748;2023-03-03T02:14:26;101142.84;;;-0.84;100.00
34925;BME280;21130;51.728;8.748;2023-03-03T02:16:53;101145.00;;;-0.88;100.00
34925;BME280;21130;51.728;8.748;2023-03-03T02:19:25;101143.38;;;-0.81;100.00
34925;BME280;21130;51.728;8.748;2023-03-03T02:21:53;101134.09;;;-0.88;100.00
34925;BME280;21130;51.728;8.748;2023-03-03T02:24:24;101145.63;;;-0.76;100.00
34925;BME280;21130;51.728;8.748;2023-03-03T02:26:54;101160.81;;;-0.74;100.00
34925;BME280;21130;51.728;8.748;2023-03-03T02:29:20;101163.41;;;-0.72;100.00
34925;BME280;21130;51.728;8.748;2023-03-03T02:31:47;101162.22;;;-0.70;100.00
34925;BME280;21130;51.728;8.748;2023-03-03T02:34:13;101159.13;;;-0.75;100.00
34925;BME280;21130;51.728;8.748;2023-03-03T02:36:40;101158.47;;;-0.69;100.00
34925;BME280;21130;51.728;8.748;2023-03-03T02:39:09;101157.50;;;-0.68;100.00
34925;BME280;21130;51.728;8.748;2023-03-03T02:41:39;101159.81;;;-0.73;100.00
34925;BME280;21130;51.728;8.748;2023-03-03T02:44:11;101164.25;;;-0.72;100.00
34925;BME280;21130;51.728;8.748;2023-03-03T02:46:39;101151.78;;;-0.74;100.00
34925;BME280;21130;51.728;8.748;2023-03-03T02:49:08;101152.78;;;-0.75;100.00
34925;BME280;21130;51.728;8.748;2023-03-03T02:51:36;101159.41;;;-0.78;100.00
34925;BME280;21130;51.728;8.748;2023-03-03T02:54:03;101155.38;;;-0.74;100.00
34925;BME280;21130;51.728;8.748;2023-03-03T02:56:30;101171.88;;;-0.75;100.00
34925;BME280;21130;51.728;8.748;2023-03-03T02:58:56;101171.41;;;-0.71;100.00
34925;BME280;21130;51.728;8.748;2023-03-03T03:01:24;101166.72;;;-0.78;100.00
34925;BME280;21130;51.728;8.748;2023-03-03T03:03:51;101172.03;;;-0.77;100.00
34925;BME280;21130;51.728;8.748;2023-03-03T03:06:17;101170.63;;;-0.81;100.00
34925;BME280;21130;51.728;8.748;2023-03-03T03:08:43;101156.84;;;-0.79;100.00
34925;BME280;21130;51.728;8.748;2023-03-03T03:11:10;101165.34;;;-0.82;100.00
34925;BME280;21130;51.728;8.748;2023-03-03T03:13:36;101173.97;;;-0.87;100.00
34925;BME280;21130;51.728;8.748;2023-03-03T03:16:04;101165.09;;;-0.89;100.00
34925;BME280;21130;51.728;8.748;2023-03-03T03:18:31;101160.88;;;-0.83;100.00
34925;BME280;21130;51.728;8.748;2023-03-03T03:21:04;101177.50;;;-0.77;100.00
34925;BME280;21130;51.728;8.748;2023-03-03T03:23:31;101175.16;;;-0.72;100.00
34925;BME280;21130;51.728;8.748;2023-03-03T03:25:57;101162.06;;;-0.86;100.00
34925;BME280;21130;51.728;8.748;2023-03-03T03:28:23;101169.22;;;-0.85;100.00
34925;BME280;21130;51.728;8.748;2023-03-03T03:30:50;101164.94;;;-0.88;100.00
34925;BME280;21130;51.728;8.748;2023-03-03T03:33:17;101171.06;;;-0.85;100.00
34925;BME280;21130;51.728;8.748;2023-03-03T03:35:44;101174.38;;;-0.82;100.00
34925;BME280;21130;51.728;8.748;2023-03-03T03:38:11;101185.88;;;-0.88;100.00
34925;BME280;21130;51.728;8.748;2023-03-03T03:40:38;101177.09;;;-0.82;100.00
34925;BME280;21130;51.728;8.748;2023-03-03T03:43:05;101169.84;;;-0.91;100.00
34925;BME280;21130;51.728;8.748;2023-03-03T03:45:32;101164.94;;;-0.88;100.00
34925;BME280;21130;51.728;8.748;2023-03-03T03:47:58;101165.81;;;-0.87;100.00
34925;BME280;21130;51.728;8.748;2023-03-03T03:50:25;101172.41;;;-0.90;100.00
34925;BME280;21130;51.728;8.748;2023-03-03T03:52:53;101179.75;;;-0.90;100.00
34925;BME280;21130;51.728;8.748;2023-03-03T03:55:19;101175.59;;;-0.94;100.00
34925;BME280;21130;51.728;8.748;2023-03-03T03:57:46;101169.28;;;-0.95;100.00
34925;BME280;21130;51.728;8.748;2023-03-03T04:00:13;101172.78;;;-1.02;100.00
34925;BME280;21130;51.728;8.748;2023-03-03T04:02:40;101171.72;;;-0.92;100.00
34925;BME280;21130;51.728;8.748;2023-03-03T04:05:07;101167.47;;;-1.04;100.00
34925;BME280;21130;51.728;8.748;2023-03-03T04:07:33;101167.34;;;-1.02;100.00
34925;BME280;21130;51.728;8.748;2023-03-03T04:10:01;101161.91;;;-1.02;100.00
34925;BME280;21130;51.728;8.748;2023-03-03T04:12:28;101150.28;;;-1.04;100.00
34925;BME280;21130;51.728;8.748;2023-03-03T04:14:55;101150.19;;;-1.13;100.00
34925;BME280;21130;51.728;8.748;2023-03-03T04:17:23;101146.38;;;-1.20;100.00
34925;BME280;21130;51.728;8.748;2023-03-03T04:19:51;101152.94;;;-1.13;100.00
34925;BME280;21130;51.728;8.748;2023-03-03T04:22:18;101168.38;;;-1.13;100.00
34925;BME280;21130;51.728;8.748;2023-03-03T04:24:44;101165.91;;;-1.06;100.00
34925;BME280;21130;51.728;8.748;2023-03-03T04:27:14;101170.25;;;-1.14;100.00
34925;BME280;21130;51.728;8.748;2023-03-03T04:29:40;101170.53;;;-1.07;100.00
34925;BME280;21130;51.728;8.748;2023-03-03T04:32:06;101174.81;;;-1.04;100.00
34925;BME280;21130;51.728;8.748;2023-03-03T04:34:33;101171.22;;;-1.05;100.00
34925;BME280;21130;51.728;8.748;2023-03-03T04:36:59;101170.25;;;-1.14;100.00
34925;BME280;21130;51.728;8.748;2023-03-03T04:39:27;101177.72;;;-1.16;100.00
34925;BME280;21130;51.728;8.748;2023-03-03T04:41:53;101182.00;;;-1.13;100.00
34925;BME280;21130;51.728;8.748;2023-03-03T04:44:21;101183.03;;;-1.14;100.00
34925;BME280;21130;51.728;8.748;2023-03-03T04:46:47;101190.34;;;-1.15;100.00
34925;BME280;21130;51.728;8.748;2023-03-03T04:49:14;101182.63;;;-1.19;100.00
34925;BME280;21130;51.728;8.748;2023-03-03T04:51:40;101180.75;;;-1.19;100.00
34925;BME280;21130;51.728;8.748;2023-03-03T04:54:06;101178.03;;;-1.19;100.00
34925;BME280;21130;51.728;8.748;2023-03-03T04:56:33;101176.03;;;-1.17;100.00
34925;BME280;21130;51.728;8.748;2023-03-03T04:59:00;101169.28;;;-1.13;100.00
34925;BME280;21130;51.728;8.748;2023-03-03T05:01:27;101171.38;;;-1.06;100.00
34925;BME280;21130;51.728;8.748;2023-03-03T05:03:54;101175.72;;;-1.14;100.00
34925;BME280;21130;51.728;8.748;2023-03-03T05:06:20;101173.84;;;-1.13;100.00
34925;BME280;21130;51.728;8.748;2023-03-03T05:08:47;101172.59;;;-1.19;100.00
34925;BME280;21130;51.728;8.748;2023-03-03T05:11:13;101182.50;;;-1.18;100.00
34925;BME280;21130;51.728;8.748;2023-03-03T05:13:39;101179.75;;;-1.18;100.00
34925;BME280;21130;51.728;8.748;2023-03-03T05:16:06;101176.81;;;-1.06;100.00
34925;BME280;21130;51.728;8.748;2023-03-03T05:18:35;101178.59;;;-1.15;100.00
34925;BME280;21130;51.728;8.748;2023-03-03T05:21:01;101184.59;;;-1.12;100.00
34925;BME280;21130;51.728;8.748;2023-03-03T05:23:28;101183.13;;;-1.06;100.00
34925;BME280;21130;51.728;8.748;2023-03-03T05:25:54;101192.38;;;-1.17;100.00
34925;BME280;21130;51.728;8.748;2023-03-03T05:28:21;101180.75;;;-1.19;100.00
34925;BME280;21130;51.728;8.748;2023-03-03T05:30:47;101182.19;;;-1.15;100.00
34925;BME280;21130;51.728;8.748;2023-03-03T05:33:15;101190.34;;;-1.15;100.00
34925;BME280;21130;51.728;8.748;2023-03-03T05:35:43;101182.56;;;-1.10;100.00
34925;BME280;21130;51.728;8.748;2023-03-03T05:38:10;101186.22;;;-1.19;100.00
34925;BME280;21130;51.728;8.748;2023-03-03T05:40:36;101190.81;;;-1.19;100.00
34925;BME280;21130;51.728;8.748;2023-03-03T05:43:03;101183.38;;;-1.27;100.00
34925;BME280;21130;51.728;8.748;2023-03-03T05:45:29;101201.84;;;-1.21;100.00
34925;BME280;21130;51.728;8.748;2023-03-03T05:47:56;101207.00;;;-1.18;100.00
34925;BME280;21130;51.728;8.748;2023-03-03T05:50:22;101198.22;;;-1.12;100.00
34925;BME280;21130;51.728;8.748;2023-03-03T05:52:50;101206.44;;;-1.21;100.00
34925;BME280;21130;51.728;8.748;2023-03-03T05:55:17;101203.25;;;-1.17;100.00
34925;BME280;21130;51.728;8.748;2023-03-03T05:57:44;101209.88;;;-1.19;100.00
34925;BME280;21130;51.728;8.748;2023-03-03T06:00:12;101209.31;;;-1.23;100.00
34925;BME280;21130;51.728;8.748;2023-03-03T06:02:39;101208.56;;;-1.15;100.00
34925;BME280;21130;51.728;8.748;2023-03-03T06:05:07;101217.31;;;-1.21;100.00
34925;BME280;21130;51.728;8.748;2023-03-03T06:07:33;101222.28;;;-1.07;100.00
34925;BME280;21130;51.728;8.748;2023-03-03T06:10:02;101210.97;;;-1.12;100.00
34925;BME280;21130;51.728;8.748;2023-03-03T06:12:28;101219.38;;;-1.05;100.00
34925;BME280;21130;51.728;8.748;2023-03-03T06:14:55;101220.16;;;-1.13;100.00
34925;BME280;21130;51.728;8.748;2023-03-03T06:17:22;101219.28;;;-1.14;100.00
34925;BME280;21130;51.728;8.748;2023-03-03T06:19:48;101224.63;;;-1.22;100.00
34925;BME280;21130;51.728;8.748;2023-03-03T06:22:15;101226.34;;;-1.21;100.00
34925;BME280;21130;51.728;8.748;2023-03-03T06:24:41;101234.38;;;-1.19;100.00
34925;BME280;21130;51.728;8.748;2023-03-03T06:27:09;101224.34;;;-1.19;100.00
34925;BME280;21130;51.728;8.748;2023-03-03T06:29:36;101227.38;;;-1.22;100.00
34925;BME280;21130;51.728;8.748;2023-03-03T06:32:02;101223.03;;;-1.15;100.00
34925;BME280;21130;51.728;8.748;2023-03-03T06:34:29;101215.00;;;-1.16;100.00
34925;BME280;21130;51.728;8.748;2023-03-03T06:36:55;101222.19;;;-1.15;100.00
34925;BME280;21130;51.728;8.748;2023-03-03T06:39:22;101218.75;;;-1.17;100.00
34925;BME280;21130;51.728;8.748;2023-03-03T06:41:48;101229.03;;;-1.11;100.00
34925;BME280;21130;51.728;8.748;2023-03-03T06:44:16;101227.31;;;-1.12;100.00
34925;BME280;21130;51.728;8.748;2023-03-03T06:46:43;101226.13;;;-1.00;100.00
34925;BME280;21130;51.728;8.748;2023-03-03T06:49:09;101221.22;;;-0.96;100.00
34925;BME280;21130;51.728;8.748;2023-03-03T06:51:37;101234.13;;;-0.98;100.00
34925;BME280;21130;51.728;8.748;2023-03-03T06:54:10;101233.41;;;-1.00;100.00
34925;BME280;21130;51.728;8.748;2023-03-03T06:56:37;101235.28;;;-1.01;100.00
34925;BME280;21130;51.728;8.748;2023-03-03T06:59:10;101233.72;;;-1.03;100.00
34925;BME280;21130;51.728;8.748;2023-03-03T07:01:40;101229.56;;;-0.98;100.00
34925;BME280;21130;51.728;8.748;2023-03-03T07:04:15;101245.00;;;-0.98;100.00
34925;BME280;21130;51.728;8.748;2023-03-03T07:06:42;101245.81;;;-0.88;100.00
34925;BME280;21130;51.728;8.748;2023-03-03T07:09:14;101253.31;;;-0.90;100.00
34925;BME280;21130;51.728;8.748;2023-03-03T07:11:42;101257.34;;;-0.94;100.00
34925;BME280;21130;51.728;8.748;2023-03-03T07:14:13;101257.81;;;-0.81;100.00
34925;BME280;21130;51.728;8.748;2023-03-03T07:22:56;101265.28;;;-0.83;100.00
34925;BME280;21130;51.728;8.748;2023-03-03T07:25:29;101266.41;;;-0.76;100.00
34925;BME280;21130;51.728;8.748;2023-03-03T07:27:59;101274.03;;;-0.79;100.00
34925;BME280;21130;51.728;8.748;2023-03-03T07:30:27;101277.31;;;-0.76;100.00
34925;BME280;21130;51.728;8.748;2023-03-03T07:32:55;101270.19;;;-0.87;100.00
34925;BME280;21130;51.728;8.748;2023-03-03T07:35:29;101281.06;;;-0.77;100.00
34925;BME280;21130;51.728;8.748;2023-03-03T07:38:02;101277.94;;;-0.82;100.00
34925;BME280;21130;51.728;8.748;2023-03-03T07:40:34;101281.44;;;-0.72;100.00
34925;BME280;21130;51.728;8.748;2023-03-03T07:43:24;101289.31;;;-0.69;100.00
34925;BME280;21130;51.728;8.748;2023-03-03T07:45:54;101287.00;;;-0.63;100.00
34925;BME280;21130;51.728;8.748;2023-03-03T07:48:25;101303.63;;;-0.57;100.00
34925;BME280;21130;51.728;8.748;2023-03-03T07:50:53;101301.19;;;-0.60;100.00
34925;BME280;21130;51.728;8.748;2023-03-03T07:53:25;101304.06;;;-0.61;100.00
34925;BME280;21130;51.728;8.748;2023-03-03T07:55:59;101310.63;;;-0.54;100.00
34925;BME280;21130;51.728;8.748;2023-03-03T07:58:30;101304.47;;;-0.56;100.00
34925;BME280;21130;51.728;8.748;2023-03-03T08:03:57;101304.53;;;-0.48;100.00
34925;BME280;21130;51.728;8.748;2023-03-03T08:06:43;101312.97;;;-0.41;100.00
34925;BME280;21130;51.728;8.748;2023-03-03T08:09:36;101312.97;;;-0.41;100.00
34925;BME280;21130;51.728;8.748;2023-03-03T08:12:28;101310.66;;;-0.36;100.00
34925;BME280;21130;51.728;8.748;2023-03-03T08:15:11;101311.59;;;-0.28;100.00
34925;BME280;21130;51.728;8.748;2023-03-03T08:17:41;101308.47;;;-0.33;100.00
34925;BME280;21130;51.728;8.748;2023-03-03T08:20:36;101312.91;;;-0.32;100.00
34925;BME280;21130;51.728;8.748;2023-03-03T08:23:04;101309.16;;;-0.31;100.00
34925;BME280;21130;51.728;8.748;2023-03-03T08:25:32;101307.69;;;-0.25;100.00
34925;BME280;21130;51.728;8.748;2023-03-03T08:27:58;101299.34;;;-0.41;100.00
34925;BME280;21130;51.728;8.748;2023-03-03T08:30:25;101296.25;;;-0.29;100.00
34925;BME280;21130;51.728;8.748;2023-03-03T08:32:51;101309.56;;;-0.26;100.00
34925;BME280;21130;51.728;8.748;2023-03-03T08:35:17;101315.19;;;-0.27;100.00
34925;BME280;21130;51.728;8.748;2023-03-03T08:37:44;101313.78;;;-0.13;100.00
34925;BME280;21130;51.728;8.748;2023-03-03T08:40:10;101312.09;;;-0.14;100.00
34925;BME280;21130;51.728;8.748;2023-03-03T08:42:38;101309.75;;;-0.09;100.00
34925;BME280;21130;51.728;8.748;2023-03-03T08:45:05;101316.81;;;0.02;100.00
34925;BME280;21130;51.728;8.748;2023-03-03T08:47:32;101314.34;;;0.08;100.00
34925;BME280;21130;51.728;8.748;2023-03-03T08:49:58;101310.25;;;0.12;100.00
34925;BME280;21130;51.728;8.748;2023-03-03T08:52:24;101314.09;;;0.19;100.00
34925;BME280;21130;51.728;8.748;2023-03-03T08:54:51;101316.72;;;0.29;100.00
34925;BME280;21130;51.728;8.748;2023-03-03T08:57:18;101319.63;;;0.28;100.00
34925;BME280;21130;51.728;8.748;2023-03-03T08:59:46;101315.94;;;0.37;100.00
34925;BME280;21130;51.728;8.748;2023-03-03T09:02:13;101322.44;;;0.36;100.00
34925;BME280;21130;51.728;8.748;2023-03-03T09:04:39;101316.91;;;0.28;100.00
34925;BME280;21130;51.728;8.748;2023-03-03T09:07:06;101314.56;;;0.15;100.00
34925;BME280;21130;51.728;8.748;2023-03-03T09:09:32;101315.63;;;0.22;100.00
34925;BME280;21130;51.728;8.748;2023-03-03T09:12:08;101328.59;;;0.38;100.00
34925;BME280;21130;51.728;8.748;2023-03-03T09:14:38;101326.06;;;0.45;100.00
34925;BME280;21130;51.728;8.748;2023-03-03T09:17:21;101332.22;;;0.47;100.00
34925;BME280;21130;51.728;8.748;2023-03-03T09:19:49;101334.88;;;0.56;100.00
34925;BME280;21130;51.728;8.748;2023-03-03T09:22:19;101331.00;;;0.67;100.00
34925;BME280;21130;51.728;8.748;2023-03-03T09:24:46;101332.19;;;0.64;100.00
34925;BME280;21130;51.728;8.748;2023-03-03T09:27:18;101333.81;;;0.75;100.00
34925;BME280;21130;51.728;8.748;2023-03-03T09:29:44;101334.56;;;0.85;100.00
34925;BME280;21130;51.728;8.748;2023-03-03T09:32:23;101330.97;;;0.85;100.00
34925;BME280;21130;51.728;8.748;2023-03-03T09:34:52;101338.19;;;0.94;100.00
34925;BME280;21130;51.728;8.748;2023-03-03T09:37:21;101336.22;;;1.04;100.00
34925;BME280;21130;51.728;8.748;2023-03-03T09:39:49;101343.69;;;1.02;100.00
34925;BME280;21130;51.728;8.748;2023-03-03T09:42:31;101343.78;;;1.11;100.00
34925;BME280;21130;51.728;8.748;2023-03-03T09:45:12;101340.66;;;1.05;100.00
34925;BME280;21130;51.728;8.748;2023-03-03T09:47:52;101349.28;;;1.19;100.00
34925;BME280;21130;51.728;8.748;2023-03-03T09:50:29;101340.50;;;1.07;100.00
34925;BME280;21130;51.728;8.748;2023-03-03T09:53:12;101343.63;;;1.20;100.00
34925;BME280;21130;51.728;8.748;2023-03-03T09:55:47;101345.16;;;1.15;100.00
34925;BME280;21130;51.728;8.748;2023-03-03T09:58:24;101338.41;;;1.35;100.00
34925;BME280;21130;51.728;8.748;2023-03-03T10:00:58;101339.09;;;1.37;100.00
34925;BME280;21130;51.728;8.748;2023-03-03T10:03:51;101351.47;;;1.15;100.00
34925;BME280;21130;51.728;8.748;2023-03-03T10:06:27;101345.41;;;1.38;100.00
34925;BME280;21130;51.728;8.748;2023-03-03T10:09:03;101344.28;;;1.48;100.00
34925;BME280;21130;51.728;8.748;2023-03-03T10:11:36;101347.06;;;1.65;100.00
34925;BME280;21130;51.728;8.748;2023-03-03T10:14:20;101340.25;;;1.69;100.00
34925;BME280;21130;51.728;8.748;2023-03-03T10:16:57;101343.19;;;1.33;100.00
34925;BME280;21130;51.728;8.748;2023-03-03T10:19:36;101347.28;;;1.29;100.00
34925;BME280;21130;51.728;8.748;2023-03-03T10:22:16;101348.94;;;1.56;100.00
34925;BME280;21130;51.728;8.748;2023-03-03T10:24:55;101341.59;;;1.65;100.00
34925;BME280;21130;51.728;8.748;2023-03-03T10:27:43;101348.63;;;1.67;100.00
34925;BME280;21130;51.728;8.748;2023-03-03T10:30:20;101351.22;;;1.35;100.00
34925;BME280;21130;51.728;8.748;2023-03-03T10:32:54;101355.81;;;1.26;100.00
34925;BME280;21130;51.728;8.748;2023-03-03T10:40:59;101357.28;;;1.55;100.00
34925;BME280;21130;51.728;8.748;2023-03-03T10:43:40;101366.06;;;0.72;100.00
34925;BME280;21130;51.728;8.748;2023-03-03T10:51:26;101366.19;;;1.57;100.00
34925;BME280;21130;51.728;8.748;2023-03-03T10:54:08;101357.75;;;1.92;100.00
34925;BME280;21130;51.728;8.748;2023-03-03T10:56:48;101352.88;;;2.29;100.00
34925;BME280;21130;51.728;8.748;2023-03-03T10:59:30;101356.47;;;2.54;100.00
34925;BME280;21130;51.728;8.748;2023-03-03T11:02:02;101348.22;;;2.87;100.00
34925;BME280;21130;51.728;8.748;2023-03-03T11:04:42;101351.06;;;3.26;100.00
34925;BME280;21130;51.728;8.748;2023-03-03T11:07:17;101345.13;;;3.45;100.00
34925;BME280;21130;51.728;8.748;2023-03-03T11:09:59;101347.44;;;3.65;100.00
34925;BME280;21130;51.728;8.748;2023-03-03T11:12:38;101342.03;;;3.01;100.00
34925;BME280;21130;51.728;8.748;2023-03-03T11:15:24;101347.50;;;2.93;100.00
34925;BME280;21130;51.728;8.748;2023-03-03T11:18:12;101344.31;;;2.56;100.00
34925;BME280;21130;51.728;8.748;2023-03-03T11:20:45;101340.84;;;2.71;100.00
34925;BME280;21130;51.728;8.748;2023-03-03T11:26:16;101340.19;;;2.69;100.00
34925;BME280;21130;51.728;8.748;2023-03-03T11:29:00;101341.66;;;2.96;100.00
34925;BME280;21130;51.728;8.748;2023-03-03T11:31:34;101329.00;;;2.95;100.00
34925;BME280;21130;51.728;8.748;2023-03-03T11:34:11;101336.88;;;3.06;100.00
34925;BME280;21130;51.728;8.748;2023-03-03T11:36:44;101331.72;;;3.03;100.00
34925;BME280;21130;51.728;8.748;2023-03-03T11:39:17;101332.94;;;3.00;100.00
34925;BME280;21130;51.728;8.748;2023-03-03T11:41:55;101336.31;;;3.19;100.00
34925;BME280;21130;51.728;8.748;2023-03-03T11:44:28;101331.72;;;3.03;100.00
34925;BME280;21130;51.728;8.748;2023-03-03T11:46:58;101335.44;;;3.18;100.00
34925;BME280;21130;51.728;8.748;2023-03-03T11:49:32;101324.38;;;3.43;100.00
34925;BME280;21130;51.728;8.748;2023-03-03T11:52:05;101323.81;;;3.56;100.00
34925;BME280;21130;51.728;8.748;2023-03-03T11:54:42;101323.25;;;3.21;100.00
34925;BME280;21130;51.728;8.748;2023-03-03T11:57:19;101323.16;;;2.98;100.00
34925;BME280;21130;51.728;8.748;2023-03-03T12:00:03;101323.88;;;2.75;100.00
34925;BME280;21130;51.728;8.748;2023-03-03T12:02:56;101320.28;;;2.91;100.00
34925;BME280;21130;51.728;8.748;2023-03-03T12:05:39;101311.25;;;2.66;100.00
34925;BME280;21130;51.728;8.748;2023-03-03T12:08:21;101310.19;;;2.84;100.00
34925;BME280;21130;51.728;8.748;2023-03-03T12:10:52;101313.56;;;3.02;100.00
34925;BME280;21130;51.728;8.748;2023-03-03T12:13:29;101307.81;;;2.64;100.00
34925;BME280;21130;51.728;8.748;2023-03-03T12:16:06;101307.47;;;3.31;100.00
34925;BME280;21130;51.728;8.748;2023-03-03T12:18:46;101300.63;;;3.27;100.00
34925;BME280;21130;51.728;8.748;2023-03-03T12:21:32;101300.38;;;3.45;100.00
34925;BME280;21130;51.728;8.748;2023-03-03T12:24:22;101304.06;;;3.29;100.00
34925;BME280;21130;51.728;8.748;2023-03-03T12:27:00;101302.59;;;3.02;100.00
34925;BME280;21130;51.728;8.748;2023-03-03T12:29:38;101299.22;;;3.39;100.00
34925;BME280;21130;51.728;8.748;2023-03-03T12:32:16;101300.19;;;3.46;100.00
34925;BME280;21130;51.728;8.748;2023-03-03T12:34:52;101292.50;;;3.42;100.00
34925;BME280;21130;51.728;8.748;2023-03-03T12:37:32;101293.53;;;3.01;100.00
34925;BME280;21130;51.728;8.748;2023-03-03T12:40:09;101280.13;;;3.07;100.00
34925;BME280;21130;51.728;8.748;2023-03-03T12:42:55;101279.16;;;2.83;100.00
34925;BME280;21130;51.728;8.748;2023-03-03T12:45:36;101288.22;;;2.92;100.00
34925;BME280;21130;51.728;8.748;2023-03-03T12:48:15;101284.84;;;3.21;100.00
34925;BME280;21130;51.728;8.748;2023-03-03T12:50:51;101280.34;;;3.67;100.00
34925;BME280;21130;51.728;8.748;2023-03-03T12:53:42;101274.22;;;4.11;100.00
34925;BME280;21130;51.728;8.748;2023-03-03T12:56:12;101284.06;;;4.29;100.00
34925;BME280;21130;51.728;8.748;2023-03-03T12:58:44;101273.97;;;4.74;100.00
34925;BME280;21130;51.728;8.748;2023-03-03T13:01:25;101276.00;;;5.10;100.00
34925;BME280;21130;51.728;8.748;2023-03-03T13:04:04;101264.84;;;5.84;100.00
34925;BME280;21130;51.728;8.748;2023-03-03T13:06:37;101252.91;;;6.13;100.00
34925;BME280;21130;51.728;8.748;2023-03-03T13:09:17;101260.75;;;5.58;100.00
34925;BME280;21130;51.728;8.748;2023-03-03T13:12:18;101261.94;;;5.71;100.00
34925;BME280;21130;51.728;8.748;2023-03-03T13:14:52;101261.69;;;5.14;100.00
34925;BME280;21130;51.728;8.748;2023-03-03T13:17:25;101267.09;;;5.08;100.00
34925;BME280;21130;51.728;8.748;2023-03-03T13:19:56;101255.41;;;4.76;100.00
34925;BME280;21130;51.728;8.748;2023-03-03T13:22:36;101267.56;;;4.29;100.00
34925;BME280;21130;51.728;8.748;2023-03-03T13:25:16;101266.63;;;3.90;100.00
34925;BME280;21130;51.728;8.748;2023-03-03T13:27:47;101258.88;;;3.09;100.00
34925;BME280;21130;51.728;8.748;2023-03-03T13:30:19;101262.22;;;2.79;100.00
34925;BME280;21130;51.728;8.748;2023-03-03T13:32:52;101257.41;;;2.81;100.00